Nearby METAR Reports

 

KLOT - Romeoville/Chi, Illinois, USA
Distance from station: SE 2mi, 4km
Updated: Fri, 15-Jan-2021 10:55pm CST
Freezing fog, Overcast
Freezing fog, Overcast
 Wind from calm
Wind: Calm
Temperature: 23°F , -5°C
Dew Point: 23°F , -5°C
Humidity: 100%
Barometer: 29.60 inHg , 1002.4 hPa
Summary: Freezing Fog
Clouds: Overcast
Visibility: 1/4 mile , 0.4 km
Cloud details: Overcast 200 ft
2021/01/16 04:55 KLOT 160455Z AUTO 00000KT 1/4SM FZFG OVC002 M05/M05 A2960 RMK AO2 T10481048
KJOT - Joliet, Illinois, USA
Distance from station: SSW 8mi, 13km
Updated: Fri, 15-Jan-2021 10:55pm CST
Freezing fog, Overcast
Freezing fog, Overcast
 Wind from calm
Wind: Calm
Temperature: 23°F , -5°C
Dew Point: 21°F , -6°C
Humidity: 93%
Barometer: 29.61 inHg , 1002.7 hPa
Summary: Freezing Fog
Clouds: Overcast
Visibility: 1/4 mile , 0.4 km
Cloud details: Overcast 200 ft
2021/01/16 04:55 KJOT 160455Z AUTO 00000KT 1/4SM FZFG OVC002 M05/M06 A2961 RMK AO2 T10531060
 
KC09 - Morris-Washburn, Illinois, USA
Distance from station: SW 20mi, 32km
Updated: Fri, 15-Jan-2021 10:55pm CST
Freezing fog, Overcast
Freezing fog, Overcast
 Wind from calm
Wind: Calm
Temperature: 27°F , -3°C
Dew Point: 27°F , -3°C
Humidity: 100%
Barometer: 29.60 inHg , 1002.4 hPa
Summary: Freezing Fog
Clouds: Overcast
Visibility: 1/4 mile , 0.4 km
Cloud details: Overcast 100 ft
2021/01/16 04:55 KC09 160455Z AUTO 00000KT 1/4SM FZFG OVC001 M03/M03 A2960 RMK AO2 T10301032
KARR - Chicago/Aurora, Illinois, USA
Distance from station: WNW 21mi, 33km
Updated: Fri, 15-Jan-2021 11:05pm CST
Mist, Overcast
Mist, Overcast
 Wind from WNW
Wind: WNW 5 mph , 7 km/h
Temperature: 19°F , -7°C
Wind Chill: 12°F , -11°C
Dew Point: 16°F , -9°C
Humidity: 86%
Barometer: 29.59 inHg , 1002 hPa
Summary: Mist
Clouds: Overcast
Visibility: 3/4 mile , 1.2 km
Cloud details: Overcast 200 ft
2021/01/16 05:05 KARR 160505Z AUTO 29004KT 3/4SM BR VV002 M07/M09 A2959 RMK AO2 T10721089
 
KDPA - Chicago/Dupage, Illinois, USA
Distance from station: NNW 21mi, 34km
Updated: Fri, 15-Jan-2021 10:52pm CST
Clear
Clear
 Wind from W
Wind: W 6 mph , 9 km/h
Temperature: 27°F , -3°C
Wind Chill: 20°F , -7°C
Dew Point: 25°F , -4°C
Humidity: 93%
Barometer: 29.58 inHg , 1001.7 hPa
Clouds: Clear
Visibility: 8 miles , 13 km
2021/01/16 04:52 KDPA 160452Z 27005KT 8SM CLR M03/M04 A2958 RMK AO2 SLP023 T10281044
KMDW - Chicago, Illinois, USA
Distance from station: ENE 22mi, 36km
Updated: Fri, 15-Jan-2021 10:53pm CST
Mist, Partly cloudy
Mist, Partly cloudy
 Wind from S
Wind: S 5 mph , 7 km/h
Temperature: 30°F , -1°C
Wind Chill: 25°F , -4°C
Dew Point: 27°F , -3°C
Humidity: 86%
Barometer: 29.59 inHg , 1002 hPa
Summary: Mist
Clouds: Partly cloudy
Visibility: 5 miles , 8 km
Cloud details: Partly cloudy 2000 ft
2021/01/16 04:53 KMDW 160453Z 19004KT 5SM BR SCT020 M01/M03 A2959 RMK AO2 SLP031 I1001 T10111028
 
K06C - Chicago/Schaumbg, Illinois, USA
Distance from station: N 25mi, 39km
Updated: Fri, 15-Jan-2021 10:55pm CST
Mostly cloudy
Mostly cloudy
 Wind from calm
Wind: Calm
Temperature: 28°F , -2°C
Dew Point: 27°F , -3°C
Humidity: 93%
Barometer: 29.58 inHg , 1001.7 hPa
Clouds: Mostly cloudy
Visibility: 7 miles , 11 km
Cloud details: Partly cloudy 700 ft
Mostly cloudy 7500 ft
2021/01/16 04:55 K06C 160455Z AUTO 00000KT 7SM SCT007 BKN075 M02/M03 A2958 RMK AO2 T10221028
KORD - Chicago O'hare, Illinois, USA
Distance from station: NNE 26mi, 43km
Updated: Fri, 15-Jan-2021 10:51pm CST
Few Clouds
Few Clouds
 Wind from WSW
Wind: WSW 5 mph , 7 km/h
Temperature: 30°F , -1°C
Wind Chill: 25°F , -4°C
Dew Point: 27°F , -3°C
Humidity: 86%
Barometer: 29.57 inHg , 1001.4 hPa
Clouds: Few Clouds
Visibility: 9 miles , 14 km
Cloud details: Few Clouds 2900 ft
Few Clouds 17000 ft
2021/01/16 04:51 KORD 160451Z 25004KT 9SM FEW029 FEW170 M01/M03 A2957 RMK AO2 SLP020 T10061028
 
KIGQ - Chicago/Lansing, Illinois, USA
Distance from station: E 31mi, 51km
Updated: Fri, 15-Jan-2021 10:55pm CST
Mist, Overcast
Mist, Overcast
 Wind from WSW
Wind: WSW 7 mph , 11 km/h
Temperature: 28°F , -2°C
Wind Chill: 21°F , -6°C
Dew Point: 28°F , -2°C
Humidity: 100%
Barometer: 29.61 inHg , 1002.7 hPa
Summary: Mist
Clouds: Overcast
Visibility: 1 mile , 2 km
Cloud details: Overcast 200 ft
2021/01/16 04:55 KIGQ 160455Z AUTO 24006KT 1SM BR OVC002 M02/M02 A2961 RMK AO2 T10201020
KPWK - Palwaukee, Illinois, USA
Distance from station: NNE 36mi, 57km
Updated: Fri, 15-Jan-2021 10:52pm CST
Mostly cloudy
Mostly cloudy
 Wind from SW
Wind: SW 3 mph , 6 km/h
Temperature: 32°F , 0°C
Dew Point: 28°F , -2°C
Humidity: 87%
Barometer: 29.59 inHg , 1002 hPa
Clouds: Mostly cloudy
Visibility: 8 miles , 13 km
Cloud details: Mostly cloudy 7000 ft
2021/01/16 04:52 KPWK 160452Z AUTO 23003KT 8SM BKN070 00/M02 A2959 RMK AO2 SLP025 T00001017
 
KDKB - De Kalb, Illinois, USA
Distance from station: NW 36mi, 58km
Updated: Fri, 15-Jan-2021 10:55pm CST
Mist, Overcast
Mist, Overcast
 Wind from WSW
Wind: WSW 3 mph , 6 km/h
Temperature: 30°F , -1°C
Dew Point: 30°F , -1°C
Humidity: 100%
Barometer: 29.59 inHg , 1002 hPa
Summary: Mist
Clouds: Overcast
Visibility: 4 miles , 6 km
Cloud details: Overcast 400 ft
2021/01/16 04:55 KDKB 160455Z AUTO 25003KT 4SM BR OVC004 M01/M01 A2959 RMK AO2 T10131013
KGYY - Gary Regional, Indiana, USA
Distance from station: E 37mi, 59km
Updated: Fri, 15-Jan-2021 10:55pm CST
Mist, Overcast
Mist, Overcast
 Wind from WSW
Wind: WSW 5 mph , 7 km/h
Temperature: 25°F , -4°C
Wind Chill: 19°F , -7°C
Dew Point: 23°F , -5°C
Humidity: 93%
Barometer: 29.61 inHg , 1002.7 hPa
Summary: Mist
Clouds: Overcast
Visibility: 3/4 mile , 1.2 km
Cloud details: Overcast 300 ft
2021/01/16 04:55 KGYY 160455Z AUTO 24004KT 3/4SM BR OVC003 M04/M05 A2961 RMK AO2 T10431048
 
KIKK - Kankakee, Illinois, USA
Distance from station: SSE 41mi, 67km
Updated: Fri, 15-Jan-2021 10:55pm CST
Overcast
Overcast
 Wind from calm
Wind: Calm
Temperature: 28°F , -2°C
Dew Point: 28°F , -2°C
Humidity: 100%
Barometer: 29.61 inHg , 1002.7 hPa
Clouds: Overcast
Visibility: 7 miles , 11 km
Cloud details: Overcast 1500 ft
2021/01/16 04:55 KIKK 160455Z AUTO 00000KT 7SM OVC015 M02/M02 A2961 RMK AO2 T10201020